Ride Results

Tooraweenah (16-04-2016)
Ride distance: 80.0 km

Outcomes - Tooraweenah (16-04-2016)
Division No. of Entries Retired / DNE Completed Withdrawn Ineligible V/O Percentage Completed
HW 7 - 6 - - 1 85.71%
MW 10 - 9 - - 1 90.00%
LW 8 - 4 1 - 3 50.00%
JN 6 - 5 1 - - 83.33%
Totals 31 - 24 2 - 5 77.42%
Results - Tooraweenah (16-04-2016)
No. Rider Horse Place Time Leg Speeds Total
Km/Hr
H/R bpm
Heavyweight
501 Roy Barsby Dumaresq Buzz 1 (BC) 6:08:00 15.2, 11.3 13.04 32, 48, 48 (Avg:48)
502 Steve Broadbent Glendhu Moonshine 1 6:08:00 15.3, 11.3 13.04 34, 48, 50 (Avg:49)
503 Allan Caslick Splendacrest Grouse 3 7:54:00 10.6, 9.6 10.13 35, 42, 48 (Avg:45)
507 Steve Brooks A'landell Pirate 4 8:12:00 11.3, 8.5 9.76 36, 46, 44 (Avg:45)
500 Damien Bonham Box Hill Ralph 5 8:59:00 8.7, 9.0 8.91 29, 43, 48 (Avg:45)
504 Brad Jones Shellal Jive 6 9:00:00 9.4, 8.3 8.89 31, 50, 59 (Avg:54)
506 John Howe Ashbend Perazzi Lame L1 0:00:00 11.0 - 35, 46 (Avg:46)
Middleweight
6 Sonia Bonham Box Hill Bullzeye 1 (BC) 5:37:00 16.6, 12.4 14.24 28, 42, 45 (Avg:43)
9 Darryl King James Bonn 2 6:08:00 15.3, 11.3 13.04 33, 43, 44 (Avg:43)
2 Carol Major Bradali Najmul Fi Samar 3 7:36:00 12.9, 8.8 10.53 38, 40, 40 (Avg:40)
1 Jennifer Caslick Arabec The Wizard 4 7:54:00 10.6, 9.6 10.13 36, 41, 40 (Avg:40)
7 Victoria Bonham Bridle Track Bogart 5 8:22:00 11.0, 8.4 9.56 37, 42, 53 (Avg:47)
5 Lauren Mitchell Burren-Dah Gidget 6 8:59:00 9.5, 8.3 8.91 34, 42, 52 (Avg:47)
10 Susan Pritchard Velona El Dargo 6 8:59:00 10.6, 7.6 8.91 44, 40, 54 (Avg:47)
3 Michael Boland Rosebrae Amber 8 9:00:00 8.8, 8.8 8.89 35, 38, 44 (Avg:41)
4 Margaret Boland Rosebrae Drum 8 9:00:00 8.8, 8.8 8.89 44, 47, 44 (Avg:45)
8 Chris Noonan Duray Djuan Lame L2 0:00:00 11.0, 2.3 - 34, 42, 42 (Avg:42)
Lightweight
402 Sue Todd Shalacey Bear 1 7:36:00 12.9, 8.8 10.53 41, 42, 44 (Avg:43)
405 Amanda Myers Grattai Station Traveller 2 7:39:00 12.2, 9.1 10.46 42, 46, 42 (Avg:44)
401 Tracy Broadbent Khaleem De-Rothbury 3 (BC) 7:44:00 12.1, 8.9 10.34 35, 40, 42 (Avg:41)
407 Julie Brooks Harmere Jameel 4 8:12:00 11.3, 8.5 9.76 40, 46, 48 (Avg:47)
403 Wendy Jones Velona Ollie Lame L2 0:00:00 9.4, 8.3 - 40, 46, 50 (Avg:48)
400 Shannen Thorsby Kamikaze Jacob Lame L2 0:00:00 12.1, 9.0 - 46, 51, 50 (Avg:50)
406 Linda Logan Willow Valley Dartanyan Lame L1 0:00:00 9.5 - 44, 38 (Avg:38)
404 Dianne Luker Kintamani Silver Diva Withdrawn P/R 0:00:00 - - -
Junior
310 Tahnaya Mercieca Malleegrove Qaarma 1 7:46:00 12.3, 8.8 10.30 35, 52, 59 (Avg:55)
314 Isabella Circosta Ropa Park Bella Shakila 2 (BC) 8:15:00 11.2, 8.5 9.70 36, 38, 39 (Avg:38)
315 Makayla Circosta Ropa Park Bella Rastique 2 8:15:00 11.2, 8.5 9.70 34, 42, 50 (Avg:46)
311 Charlie Bonham Box Hill Hussy 4 8:59:00 8.7, 9.0 8.91 36, 37, 46 (Avg:41)
312 Brooke Bonus Box Hill Jackpot 4 8:59:00 8.7, 9.0 8.91 40, 38, 42 (Avg:40)
313 Sam Duff Box Hill Pegasus Withdrawn L1 0:00:00 - - 37, 54 (Avg:54)